Provideniya Bay Airport
UHMD : now visible

Airfield :











YOU CAN JOIN US ON...

 
LOGIN :

Register | Disclaimer

   EN    FR    IT 

 









Legend :    VFR   Marginal VFR   IFR   Intensive IFR   Very Intensive IFR
Visi :
Ceiling :
>= 8 km
>= 3000ft
5 to 8 km
1000 to 3000 ft
1500m to 5 km
500 to 1000 ft
800 to 1500m
200 to 500 ft
< 800m
< 200 ft
Symbols :   Thunderstorms  Fog  Heavy snow  Heavy precipitations  Wind > 20 kt






- Airport Elevation : 72 ft
- IATA code : PVS


UHMD - Provideniya Bay

CURRENT METAR :
  • 210530Z 02003MPS 9999 BKN036 06/01 Q1009 RMK QFE756/1008

EXPIRED METARs :
  • 210500Z 36002MPS 9999 BKN036 06/01 Q1009 RMK QFE756/1008
  • 210430Z 02005MPS 9999 BKN036 06/01 Q1009 RMK QFE756/1008
  • 210400Z 01004MPS 9999 BKN035CB 06/01 Q1009 RMK QFE756/1008
  • 210330Z 36003MPS 9999 -SHRA BKN035CB 06/01 Q1009 RMK QFE756/1008
  • 210300Z 02003MPS 9999 BKN033CB 06/02 Q1009 RMK QFE756/1008

TAF TAF UHMD
Valid from the 21 at 03:00 until the 21 at 09:00 UTC


210140Z 2103/2109 02003G08MPS 9999 BKN020
TEMPO 2103/2109 36008G13MPS 3100 -SHRASN BR SCT005 BKN010CB
UHMA FIR / Europe



MET'MAP, your aeronautical weather chart ! - Copyright ORBIFLY December 2007 - Disclaimer

ORBIFLY MET'MAP TEAM :

Programming & Development : Alexandra Zaïnal
Concept & original design : Baudouin d'Aumeries
Assistance for programming : Marc-Olivier Méhu
Technical & hardware support : Manuel Goepfert

Contact : metmap@orbifly.com




SOURCES & CREDITS :

   NOAA       Earth
Advisory